createdAt,value
2018-08-11T00:02:22.891Z,4.90
2018-08-11T00:04:50.152Z,5.00
2018-08-11T00:07:17.423Z,4.50
2018-08-11T00:09:45.068Z,5.03
2018-08-11T00:12:12.426Z,4.80
2018-08-11T00:14:39.675Z,5.10
2018-08-11T00:17:07.263Z,5.05
2018-08-11T00:19:35.513Z,4.65
2018-08-11T00:22:02.831Z,5.00
2018-08-11T00:24:30.151Z,5.30
2018-08-11T00:26:57.907Z,4.72
2018-08-11T00:29:25.139Z,4.67
2018-08-11T00:31:52.407Z,4.90
2018-08-11T00:34:19.702Z,4.83
2018-08-11T00:36:47.041Z,4.80
2018-08-11T00:39:14.254Z,4.50
2018-08-11T00:41:41.456Z,4.67
2018-08-11T00:44:09.732Z,4.37
2018-08-11T00:46:36.988Z,4.35
2018-08-11T00:49:04.399Z,4.42
2018-08-11T00:51:31.697Z,4.50
2018-08-11T00:53:59.000Z,4.30
2018-08-11T00:56:26.250Z,3.80
2018-08-11T00:58:53.506Z,3.90
2018-08-11T01:01:20.682Z,4.00
2018-08-11T01:03:47.855Z,4.17
2018-08-11T01:06:15.115Z,3.80
2018-08-11T01:08:42.384Z,3.52
2018-08-11T01:11:09.639Z,3.60
2018-08-11T01:13:36.905Z,3.58
2018-08-11T01:16:04.134Z,3.58
2018-08-11T01:18:31.372Z,3.50
2018-08-11T01:20:58.618Z,3.67
2018-08-11T01:23:25.867Z,3.55
2018-08-11T01:25:53.095Z,3.50
2018-08-11T01:28:20.323Z,3.58
2018-08-11T01:30:47.531Z,3.30
2018-08-11T01:33:14.940Z,3.50
2018-08-11T01:35:42.180Z,3.17
2018-08-11T01:38:09.374Z,3.30
2018-08-11T01:40:36.619Z,3.10
2018-08-11T01:43:03.889Z,3.45
2018-08-11T01:45:31.098Z,3.20
2018-08-11T01:47:58.363Z,3.20
2018-08-11T01:50:25.635Z,3.30
2018-08-11T01:52:52.903Z,2.60
2018-08-11T01:55:20.183Z,2.50
2018-08-11T01:57:47.413Z,3.00
2018-08-11T02:00:15.453Z,2.60
2018-08-11T02:02:42.742Z,2.42
2018-08-11T02:05:10.914Z,2.50
2018-08-11T02:07:39.209Z,2.50
2018-08-11T02:10:09.304Z,2.20
2018-08-11T02:12:36.560Z,2.45
2018-08-11T02:15:06.095Z,2.40
2018-08-11T02:17:33.333Z,2.42
2018-08-11T02:20:00.548Z,2.20
2018-08-11T02:22:27.835Z,2.15
2018-08-11T02:24:55.061Z,2.40
2018-08-11T02:27:22.288Z,2.40
2018-08-11T02:29:49.491Z,2.12
2018-08-11T02:32:16.739Z,2.00
2018-08-11T02:34:44.047Z,1.95
2018-08-11T02:37:11.351Z,1.70
2018-08-11T02:39:38.611Z,2.08
2018-08-11T02:42:05.815Z,1.70
2018-08-11T02:44:33.028Z,1.90
2018-08-11T02:47:00.256Z,2.30
2018-08-11T02:49:27.433Z,2.20
2018-08-11T02:51:54.621Z,1.80
2018-08-11T02:54:21.841Z,2.40
2018-08-11T02:56:49.051Z,2.50
2018-08-11T02:59:20.854Z,2.20
2018-08-11T03:01:48.067Z,2.30
2018-08-11T03:04:15.292Z,2.42
2018-08-11T03:06:43.409Z,2.80
2018-08-11T03:09:10.639Z,2.60
2018-08-11T03:11:37.893Z,2.70
2018-08-11T03:14:05.202Z,3.58
2018-08-11T03:16:32.429Z,3.50
2018-08-11T03:19:00.252Z,3.87
2018-08-11T03:21:27.577Z,4.12
2018-08-11T03:23:54.812Z,3.80
2018-08-11T03:26:22.399Z,3.50
2018-08-11T03:28:49.585Z,3.20
2018-08-11T03:31:16.791Z,3.20
2018-08-11T03:33:44.117Z,3.33
2018-08-11T03:36:11.314Z,3.12
2018-08-11T03:38:38.499Z,3.42
2018-08-11T03:41:05.823Z,3.43
2018-08-11T03:43:33.065Z,3.30
2018-08-11T03:46:00.296Z,3.20
2018-08-11T03:48:27.469Z,3.72
2018-08-11T03:50:54.671Z,3.80
2018-08-11T03:53:21.931Z,3.80
2018-08-11T03:55:49.168Z,3.70
2018-08-11T03:58:16.452Z,3.60
2018-08-11T04:00:43.711Z,3.70
2018-08-11T04:03:10.949Z,3.60
2018-08-11T04:05:38.253Z,3.65
2018-08-11T04:08:05.504Z,3.85
2018-08-11T04:10:32.738Z,4.70
2018-08-11T04:12:59.915Z,4.50
2018-08-11T04:15:27.095Z,5.00
2018-08-11T04:17:54.290Z,5.00
2018-08-11T04:20:21.695Z,4.42
2018-08-11T04:22:48.899Z,4.70
2018-08-11T04:25:16.089Z,3.80
2018-08-11T04:27:43.355Z,4.80
2018-08-11T04:30:11.286Z,4.70
2018-08-11T04:32:38.523Z,5.22
2018-08-11T04:35:05.764Z,4.20
2018-08-11T04:37:32.991Z,5.30
2018-08-11T04:40:00.248Z,5.20
2018-08-11T04:42:27.440Z,4.90
2018-08-11T04:44:54.624Z,4.47
2018-08-11T04:47:21.847Z,4.90
2018-08-11T04:49:49.028Z,5.40
2018-08-11T04:52:16.268Z,4.60
2018-08-11T04:54:43.668Z,4.30
2018-08-11T04:57:10.889Z,4.30
2018-08-11T04:59:38.128Z,3.87
2018-08-11T05:02:05.372Z,3.90
2018-08-11T05:04:32.600Z,3.50
2018-08-11T05:06:59.875Z,3.60
2018-08-11T05:09:27.080Z,3.00
2018-08-11T05:11:54.302Z,3.70
2018-08-11T05:14:21.487Z,3.22
2018-08-11T05:16:48.728Z,3.30
2018-08-11T05:19:15.923Z,2.90
2018-08-11T05:21:43.126Z,3.05
2018-08-11T05:24:10.299Z,2.70
2018-08-11T05:26:37.517Z,2.60
2018-08-11T05:29:04.780Z,2.30
2018-08-11T05:31:32.053Z,2.00
2018-08-11T05:33:59.270Z,1.65
2018-08-11T05:36:26.502Z,1.98
2018-08-11T05:38:53.743Z,2.00
2018-08-11T05:41:20.951Z,1.90
2018-08-11T05:43:48.184Z,2.27
2018-08-11T05:46:15.574Z,2.05
2018-08-11T05:48:43.819Z,2.30
2018-08-11T05:51:10.980Z,2.10
2018-08-11T05:53:38.146Z,2.80
2018-08-11T05:56:05.674Z,2.40
2018-08-11T05:58:32.899Z,2.37
2018-08-11T06:01:00.132Z,2.50
2018-08-11T06:03:27.303Z,2.30
2018-08-11T06:05:54.507Z,2.57
2018-08-11T06:08:21.787Z,2.43
2018-08-11T06:10:49.070Z,2.83
2018-08-11T06:13:16.227Z,1.90
2018-08-11T06:15:43.602Z,1.97
2018-08-11T06:18:10.827Z,1.80
2018-08-11T06:20:38.047Z,2.40
2018-08-11T06:23:05.380Z,2.17
2018-08-11T06:25:32.607Z,2.33
2018-08-11T06:27:59.913Z,2.27
2018-08-11T06:30:27.139Z,2.17
2018-08-11T06:32:54.302Z,2.27
2018-08-11T06:35:21.523Z,2.50
2018-08-11T06:37:48.793Z,3.10
2018-08-11T06:40:15.971Z,2.80
2018-08-11T06:42:43.456Z,3.13
2018-08-11T06:45:10.632Z,3.03
2018-08-11T06:47:37.779Z,2.93
2018-08-11T06:50:05.561Z,2.50
2018-08-11T06:52:32.815Z,5.03
2018-08-11T06:55:00.090Z,2.60
2018-08-11T06:57:27.412Z,2.30
2018-08-11T06:59:54.873Z,2.70
2018-08-11T07:02:22.139Z,2.70
2018-08-11T07:04:49.335Z,2.10
2018-08-11T07:07:16.535Z,2.70
2018-08-11T07:09:43.843Z,2.90
2018-08-11T07:12:11.138Z,3.47
2018-08-11T07:14:38.395Z,2.40
2018-08-11T07:17:05.595Z,3.67
2018-08-11T07:21:59.427Z,2.43
2018-08-11T07:24:26.673Z,3.05
2018-08-11T07:26:54.036Z,3.30
2018-08-11T07:29:22.098Z,3.40
2018-08-11T07:31:49.359Z,3.70
2018-08-11T07:34:16.555Z,3.63
2018-08-11T07:36:45.348Z,3.70
2018-08-11T07:39:12.443Z,3.83
2018-08-11T07:41:39.615Z,3.80
2018-08-11T07:44:07.053Z,3.90
2018-08-11T07:46:34.371Z,4.30
2018-08-11T07:49:01.608Z,3.90
2018-08-11T07:51:28.947Z,4.27
2018-08-11T07:53:56.123Z,4.40
2018-08-11T07:56:23.466Z,4.20
2018-08-11T07:58:50.721Z,4.00
2018-08-11T08:01:18.095Z,4.30
2018-08-11T08:03:45.363Z,4.17
2018-08-11T08:06:12.633Z,4.00
2018-08-11T08:08:39.808Z,3.80
2018-08-11T08:11:07.174Z,3.80
2018-08-11T08:13:35.731Z,4.30
2018-08-11T08:16:03.000Z,4.22
2018-08-11T08:18:30.224Z,3.57
2018-08-11T08:20:57.608Z,3.80
2018-08-11T08:23:24.882Z,3.42
2018-08-11T08:25:52.089Z,3.50
2018-08-11T08:28:19.319Z,3.53
2018-08-11T08:30:46.579Z,3.80
2018-08-11T08:33:13.783Z,3.90
2018-08-11T08:35:40.994Z,4.73
2018-08-11T08:38:08.228Z,3.77
2018-08-11T08:40:35.437Z,3.90
2018-08-11T08:43:02.621Z,3.40
2018-08-11T08:45:29.945Z,3.17
2018-08-11T08:47:57.217Z,3.17
2018-08-11T08:50:25.450Z,3.50
2018-08-11T08:52:52.641Z,3.50
2018-08-11T08:55:19.907Z,3.30
2018-08-11T08:57:47.148Z,3.10
2018-08-11T09:00:14.511Z,2.90
2018-08-11T09:02:41.776Z,2.90
2018-08-11T09:05:09.004Z,2.10
2018-08-11T09:07:36.159Z,2.97
2018-08-11T09:10:03.508Z,2.60
2018-08-11T09:12:30.740Z,2.23
2018-08-11T09:14:57.917Z,2.43
2018-08-11T09:17:25.173Z,2.47
2018-08-11T09:19:52.491Z,2.37
2018-08-11T09:22:19.724Z,2.00
2018-08-11T09:24:47.008Z,2.60
2018-08-11T09:27:14.263Z,2.07
2018-08-11T09:29:41.424Z,2.70
2018-08-11T09:32:08.664Z,2.53
2018-08-11T09:34:35.822Z,2.40
2018-08-11T09:37:03.179Z,2.50
2018-08-11T09:39:30.435Z,2.30
2018-08-11T09:41:57.803Z,2.10
2018-08-11T09:44:25.100Z,2.70
2018-08-11T09:46:52.431Z,2.40
2018-08-11T09:49:19.626Z,2.30
2018-08-11T09:51:46.958Z,2.70
2018-08-11T09:54:14.128Z,2.27
2018-08-11T09:59:08.057Z,2.30
2018-08-11T10:01:41.086Z,2.53
2018-08-11T10:04:08.310Z,3.00
2018-08-11T10:11:29.104Z,3.20
2018-08-11T10:13:56.450Z,4.40
2018-08-11T10:16:23.947Z,3.95
2018-08-11T10:18:51.216Z,2.87
2018-08-11T10:21:18.435Z,2.60
2018-08-11T10:23:45.615Z,2.67
2018-08-11T10:26:12.898Z,3.20
2018-08-11T10:28:40.063Z,2.12
2018-08-11T10:31:07.287Z,2.70
2018-08-11T10:33:34.659Z,2.42
2018-08-11T10:36:02.532Z,2.30
2018-08-11T10:38:29.781Z,2.13
2018-08-11T10:40:57.139Z,1.90
2018-08-11T10:43:24.421Z,2.10
2018-08-11T10:45:51.595Z,1.70
2018-08-11T10:48:18.867Z,1.90
2018-08-11T10:50:46.048Z,1.70
2018-08-11T10:53:13.317Z,2.05
2018-08-11T10:55:40.603Z,1.70
2018-08-11T10:58:07.824Z,1.80
2018-08-11T11:00:35.247Z,2.10
2018-08-11T11:03:02.467Z,2.15
2018-08-11T11:05:29.746Z,2.40
2018-08-11T11:07:57.020Z,2.55
2018-08-11T11:10:24.249Z,2.33
2018-08-11T11:12:51.511Z,2.30
2018-08-11T11:15:18.779Z,2.37
2018-08-11T11:17:46.025Z,2.30
2018-08-11T11:20:13.440Z,2.53
2018-08-11T11:22:41.534Z,1.77
2018-08-11T11:25:08.871Z,1.90
2018-08-11T11:27:36.559Z,1.70
2018-08-11T11:30:04.418Z,1.80
2018-08-11T11:32:31.658Z,1.80
2018-08-11T11:34:58.867Z,1.73
2018-08-11T11:37:26.063Z,1.53
2018-08-11T11:39:53.274Z,1.70
2018-08-11T11:42:20.537Z,1.53
2018-08-11T11:57:01.536Z,1.40
2018-08-11T11:59:28.796Z,1.43
2018-08-11T12:01:56.054Z,1.50
2018-08-11T12:04:23.216Z,1.43
2018-08-11T12:06:50.395Z,1.50
2018-08-11T12:09:17.791Z,1.40
2018-08-11T12:11:45.040Z,1.23
2018-08-11T12:14:12.228Z,1.30
2018-08-11T12:16:39.605Z,1.50
2018-08-11T12:19:06.944Z,1.47
2018-08-11T12:21:34.162Z,1.50
2018-08-11T12:24:01.460Z,1.60
2018-08-11T12:26:28.811Z,1.73
2018-08-11T12:28:56.048Z,1.63
2018-08-11T12:31:23.403Z,1.43
2018-08-11T12:33:50.660Z,1.30
2018-08-11T12:36:18.018Z,1.30
2018-08-11T12:38:45.319Z,1.70
2018-08-11T12:41:12.531Z,1.60
2018-08-11T12:43:39.717Z,1.37
2018-08-11T12:46:07.045Z,1.30
2018-08-11T12:48:34.247Z,1.30
2018-08-11T12:53:28.217Z,1.40
2018-08-11T12:55:55.529Z,1.30
2018-08-11T12:58:22.765Z,1.60
2018-08-11T13:00:49.925Z,1.40
2018-08-11T13:03:17.129Z,1.60
2018-08-11T13:05:44.387Z,1.70
2018-08-11T13:08:13.563Z,1.40
2018-08-11T13:10:40.824Z,1.50
2018-08-11T13:13:08.254Z,1.37
2018-08-11T13:15:35.451Z,2.13
2018-08-11T13:18:03.251Z,1.60
2018-08-11T13:20:30.972Z,3.22
2018-08-11T13:22:58.204Z,4.50
2018-08-11T13:25:25.451Z,2.57
2018-08-11T13:27:52.677Z,3.63
2018-08-11T13:30:19.887Z,3.07
2018-08-11T13:32:47.201Z,2.37
2018-08-11T13:35:14.392Z,1.90
2018-08-11T13:37:41.856Z,1.53
2018-08-11T13:40:09.147Z,1.60
2018-08-11T13:42:36.708Z,2.17
2018-08-11T13:45:04.318Z,2.80
2018-08-11T13:47:31.595Z,2.00
2018-08-11T13:49:58.882Z,3.17
2018-08-11T13:52:26.247Z,2.90
2018-08-11T13:54:53.465Z,2.90
2018-08-11T13:59:47.427Z,1.90
2018-08-11T14:04:41.348Z,1.50
2018-08-11T14:07:08.700Z,1.77
2018-08-11T14:17:04.086Z,1.30
2018-08-11T14:24:24.711Z,1.47
2018-08-11T14:26:51.932Z,1.40
2018-08-11T14:29:19.203Z,1.97
2018-08-11T14:31:46.563Z,1.40
2018-08-11T14:34:14.446Z,1.83
2018-08-11T14:46:29.129Z,1.40
2018-08-11T14:48:56.351Z,1.80
2018-08-11T14:51:23.561Z,3.20
2018-08-11T14:53:51.056Z,2.00
2018-08-11T14:56:18.465Z,3.53
2018-08-11T14:58:46.022Z,2.40
2018-08-11T15:01:13.215Z,1.80
2018-08-11T15:03:40.431Z,1.67
2018-08-11T15:06:07.818Z,1.80
2018-08-11T15:08:35.062Z,2.30
2018-08-11T15:11:02.271Z,2.80
2018-08-11T15:13:29.515Z,3.20
2018-08-11T15:15:56.868Z,3.08
2018-08-11T15:18:24.073Z,2.90
2018-08-11T15:20:51.320Z,2.75
2018-08-11T15:23:18.563Z,2.70
2018-08-11T15:25:45.780Z,2.70
2018-08-11T15:28:13.039Z,2.43
2018-08-11T15:30:40.563Z,2.50
2018-08-11T15:33:14.659Z,2.80
2018-08-11T15:35:42.020Z,2.20
2018-08-11T15:38:09.201Z,2.67
2018-08-11T15:40:36.453Z,2.60
2018-08-11T15:43:03.720Z,2.30
2018-08-11T15:47:57.665Z,2.15
2018-08-11T15:50:24.975Z,1.73
2018-08-11T15:52:52.148Z,1.90
2018-08-11T15:55:19.463Z,1.90
2018-08-11T15:57:46.720Z,1.80
2018-08-11T16:00:13.925Z,1.80
2018-08-11T16:07:35.170Z,1.60
2018-08-11T16:10:02.446Z,1.47
2018-08-11T16:12:29.851Z,1.90
2018-08-11T16:14:57.225Z,1.80
2018-08-11T16:17:24.680Z,1.30
2018-08-11T16:19:51.911Z,1.30
2018-08-11T16:22:19.175Z,1.60
2018-08-11T16:24:46.417Z,1.90
2018-08-11T16:27:13.660Z,1.70
2018-08-11T16:29:40.911Z,1.90
2018-08-11T16:32:08.184Z,1.60
2018-08-11T16:34:35.423Z,1.60
2018-08-11T16:39:29.485Z,1.90
2018-08-11T16:41:56.667Z,1.87
2018-08-11T16:44:23.919Z,1.80
2018-08-11T16:46:51.132Z,1.70
2018-08-11T16:56:38.683Z,1.43
2018-08-11T17:03:59.382Z,1.80
2018-08-11T17:06:26.613Z,1.60
2018-08-11T17:08:53.823Z,1.70
2018-08-11T17:11:21.064Z,1.65
2018-08-11T17:13:48.312Z,1.70
2018-08-11T17:16:15.489Z,2.00
2018-08-11T17:18:42.823Z,1.60
2018-08-11T17:21:10.172Z,1.90
2018-08-11T17:23:37.558Z,2.10
2018-08-11T17:26:04.860Z,2.00
2018-08-11T17:28:32.131Z,2.10
2018-08-11T17:30:59.319Z,2.90
2018-08-11T17:33:26.483Z,2.70
2018-08-11T17:35:53.733Z,2.67
2018-08-11T17:40:48.391Z,2.60
2018-08-11T17:43:15.679Z,2.27
2018-08-11T17:48:09.754Z,1.80
2018-08-11T17:50:36.931Z,1.90
2018-08-11T17:53:04.362Z,2.03
2018-08-11T17:55:31.677Z,2.03
2018-08-11T17:57:58.894Z,1.70
2018-08-11T18:00:26.144Z,2.10
2018-08-11T18:02:53.431Z,2.00
2018-08-11T18:05:20.674Z,1.60
2018-08-11T18:07:47.950Z,2.20
2018-08-11T18:10:15.387Z,1.70
2018-08-11T18:12:42.693Z,1.30
2018-08-11T18:15:09.868Z,1.70
2018-08-11T18:17:37.262Z,1.87
2018-08-11T18:20:04.515Z,2.00
2018-08-11T18:22:31.832Z,1.70
2018-08-11T18:24:59.082Z,2.10
2018-08-11T18:27:26.379Z,1.90
2018-08-11T18:29:53.692Z,2.00
2018-08-11T18:32:20.913Z,2.13
2018-08-11T18:34:48.438Z,2.00
2018-08-11T18:37:15.607Z,2.47
2018-08-11T18:39:42.839Z,1.90
2018-08-11T18:42:10.099Z,1.90
2018-08-11T18:44:37.348Z,2.00
2018-08-11T18:48:59.046Z,1.77
2018-08-11T18:51:26.231Z,1.53
2018-08-11T18:53:53.576Z,1.83
2018-08-11T18:56:20.807Z,2.00
2018-08-11T18:58:48.006Z,1.57
2018-08-11T19:01:15.331Z,1.80
2018-08-11T19:03:42.589Z,1.90
2018-08-11T19:06:09.838Z,1.62
2018-08-11T19:08:37.089Z,1.60
2018-08-11T19:11:04.788Z,1.20
2018-08-11T19:13:32.033Z,1.50
2018-08-11T19:30:39.861Z,1.77
2018-08-11T19:33:07.164Z,1.50
2018-08-11T19:35:34.435Z,1.52
2018-08-11T19:38:01.728Z,1.50
2018-08-11T19:40:29.204Z,1.73
2018-08-11T19:42:56.434Z,1.60
2018-08-11T19:47:57.793Z,1.72
2018-08-11T19:50:25.318Z,1.77
2018-08-11T19:52:52.534Z,1.50
2018-08-11T19:55:19.783Z,1.80
2018-08-11T19:57:47.147Z,2.15
2018-08-11T20:00:14.558Z,1.50
2018-08-11T20:02:42.167Z,1.70
2018-08-11T20:05:10.371Z,1.70
2018-08-11T20:07:37.610Z,1.80
2018-08-11T20:10:05.429Z,1.90
2018-08-11T20:12:32.714Z,1.90
2018-08-11T20:14:59.936Z,1.70
2018-08-11T20:17:27.187Z,1.92
2018-08-11T20:19:54.383Z,1.60
2018-08-11T20:22:21.652Z,1.43
2018-08-11T20:24:48.950Z,1.70
2018-08-11T20:27:16.301Z,1.70
2018-08-11T20:29:43.621Z,1.80
2018-08-11T20:32:12.211Z,1.70
2018-08-11T20:34:40.096Z,1.70
2018-08-11T20:37:07.893Z,2.10
2018-08-11T20:39:35.119Z,2.10
2018-08-11T20:42:02.384Z,2.60
2018-08-11T20:44:29.611Z,1.90
2018-08-11T20:46:56.875Z,1.80
2018-08-11T20:49:24.171Z,2.00
2018-08-11T20:51:51.386Z,1.90
2018-08-11T20:54:18.679Z,1.60
2018-08-11T20:56:45.887Z,2.00
2018-08-11T20:59:13.086Z,2.03
2018-08-11T21:01:40.851Z,2.05
2018-08-11T21:04:08.103Z,1.60
2018-08-11T21:06:35.706Z,1.95
2018-08-11T21:09:06.380Z,2.00
2018-08-11T21:11:33.683Z,1.80
2018-08-11T21:14:00.937Z,2.55
2018-08-11T21:16:28.267Z,3.30
2018-08-11T21:18:55.479Z,2.42
2018-08-11T21:21:22.734Z,2.20
2018-08-11T21:23:49.962Z,2.37
2018-08-11T21:26:17.118Z,3.58
2018-08-11T21:28:44.571Z,2.37
2018-08-11T21:31:11.817Z,2.20
2018-08-11T21:33:39.062Z,2.10
2018-08-11T21:36:06.298Z,2.00
2018-08-11T21:38:33.527Z,2.00
2018-08-11T21:41:00.793Z,2.02
2018-08-11T21:43:28.019Z,2.62
2018-08-11T21:45:55.232Z,2.60
2018-08-11T21:48:22.488Z,2.60
2018-08-11T21:50:49.740Z,2.45
2018-08-11T21:53:17.321Z,2.70
2018-08-11T21:55:44.594Z,2.25
2018-08-11T21:58:11.800Z,2.50
2018-08-11T22:00:39.027Z,2.60
2018-08-11T22:03:07.223Z,2.70
2018-08-11T22:05:34.551Z,3.20
2018-08-11T22:08:02.372Z,2.50
2018-08-11T22:10:29.870Z,2.50
2018-08-11T22:12:57.439Z,2.40
2018-08-11T22:15:24.681Z,2.70
2018-08-11T22:17:51.999Z,2.40
2018-08-11T22:20:19.427Z,2.62
2018-08-11T22:22:46.764Z,3.05
2018-08-11T22:25:14.303Z,2.40
2018-08-11T22:27:42.220Z,2.70
2018-08-11T22:30:09.739Z,2.70
2018-08-11T22:32:37.357Z,3.17
2018-08-11T22:35:07.167Z,2.55
2018-08-11T22:37:34.761Z,3.00
2018-08-11T22:40:03.007Z,3.10
2018-08-11T22:42:30.229Z,3.30
2018-08-11T22:44:57.453Z,3.45
2018-08-11T22:47:24.871Z,3.02
2018-08-11T22:49:51.988Z,3.10
2018-08-11T22:52:19.220Z,3.15
2018-08-11T22:54:46.761Z,2.90
2018-08-11T22:57:14.260Z,2.83
2018-08-11T22:59:41.533Z,3.30
2018-08-11T23:02:08.775Z,3.00
2018-08-11T23:04:36.103Z,3.30
2018-08-11T23:07:03.475Z,3.67
2018-08-11T23:09:30.679Z,3.22
2018-08-11T23:11:57.971Z,3.40
2018-08-11T23:14:25.210Z,3.20
2018-08-11T23:16:52.743Z,3.40
2018-08-11T23:19:20.131Z,3.80
2018-08-11T23:21:47.470Z,3.20
2018-08-11T23:24:47.640Z,3.50
2018-08-11T23:27:14.825Z,3.60
2018-08-11T23:29:42.068Z,3.90
2018-08-11T23:32:09.335Z,3.40
2018-08-11T23:34:36.567Z,3.40
2018-08-11T23:37:03.795Z,3.12
2018-08-11T23:39:31.063Z,3.30
2018-08-11T23:41:58.308Z,3.20
2018-08-11T23:44:25.652Z,3.30
2018-08-11T23:46:52.863Z,3.00
2018-08-11T23:49:20.106Z,3.20
2018-08-11T23:51:47.323Z,3.30
2018-08-11T23:54:14.596Z,3.30
2018-08-11T23:56:41.828Z,3.70
2018-08-11T23:59:09.075Z,3.98
